sensor_id;sensor_type;location;lat;lon;timestamp;temperature;humidity
19242;DHT22;9755;47.790;9.620;2023-07-30T00:02:08;17.50;99.90
19242;DHT22;9755;47.790;9.620;2023-07-30T00:04:35;17.50;99.90
19242;DHT22;9755;47.790;9.620;2023-07-30T00:07:02;17.60;99.90
19242;DHT22;9755;47.790;9.620;2023-07-30T00:09:33;17.60;99.90
19242;DHT22;9755;47.790;9.620;2023-07-30T00:12:01;17.70;99.90
19242;DHT22;9755;47.790;9.620;2023-07-30T00:14:28;17.80;99.90
19242;DHT22;9755;47.790;9.620;2023-07-30T00:16:56;17.80;99.90
19242;DHT22;9755;47.790;9.620;2023-07-30T00:19:25;17.80;99.90
19242;DHT22;9755;47.790;9.620;2023-07-30T00:21:52;17.80;99.90
19242;DHT22;9755;47.790;9.620;2023-07-30T00:24:19;17.90;99.90
19242;DHT22;9755;47.790;9.620;2023-07-30T00:26:46;17.90;99.90
19242;DHT22;9755;47.790;9.620;2023-07-30T00:29:15;17.90;99.90
19242;DHT22;9755;47.790;9.620;2023-07-30T00:31:42;17.90;99.90
19242;DHT22;9755;47.790;9.620;2023-07-30T00:34:09;17.90;99.90
19242;DHT22;9755;47.790;9.620;2023-07-30T00:36:36;18.00;99.90
19242;DHT22;9755;47.790;9.620;2023-07-30T00:39:03;18.00;99.90
19242;DHT22;9755;47.790;9.620;2023-07-30T00:41:30;18.10;99.90
19242;DHT22;9755;47.790;9.620;2023-07-30T00:43:58;18.10;99.90
19242;DHT22;9755;47.790;9.620;2023-07-30T00:46:29;18.00;99.90
19242;DHT22;9755;47.790;9.620;2023-07-30T00:48:57;18.00;99.90
19242;DHT22;9755;47.790;9.620;2023-07-30T00:51:24;18.00;99.90
19242;DHT22;9755;47.790;9.620;2023-07-30T00:53:53;18.00;99.90
19242;DHT22;9755;47.790;9.620;2023-07-30T00:56:20;18.00;99.90
19242;DHT22;9755;47.790;9.620;2023-07-30T00:58:48;18.00;99.90
19242;DHT22;9755;47.790;9.620;2023-07-30T01:01:15;17.90;99.90
19242;DHT22;9755;47.790;9.620;2023-07-30T01:03:44;17.90;99.90
19242;DHT22;9755;47.790;9.620;2023-07-30T01:06:11;17.90;99.90
19242;DHT22;9755;47.790;9.620;2023-07-30T01:08:39;17.80;99.90
19242;DHT22;9755;47.790;9.620;2023-07-30T01:11:06;17.70;99.90
19242;DHT22;9755;47.790;9.620;2023-07-30T01:13:35;17.70;99.90
19242;DHT22;9755;47.790;9.620;2023-07-30T01:16:03;17.60;99.90
19242;DHT22;9755;47.790;9.620;2023-07-30T01:18:32;17.50;99.90
19242;DHT22;9755;47.790;9.620;2023-07-30T01:21:01;17.50;99.90
19242;DHT22;9755;47.790;9.620;2023-07-30T01:23:28;17.70;99.90
19242;DHT22;9755;47.790;9.620;2023-07-30T01:26:00;17.60;99.90
19242;DHT22;9755;47.790;9.620;2023-07-30T01:28:37;17.70;99.90
19242;DHT22;9755;47.790;9.620;2023-07-30T01:31:05;17.70;99.90
19242;DHT22;9755;47.790;9.620;2023-07-30T01:33:33;17.70;99.90
19242;DHT22;9755;47.790;9.620;2023-07-30T01:36:02;17.70;99.90
19242;DHT22;9755;47.790;9.620;2023-07-30T01:38:29;17.60;99.90
19242;DHT22;9755;47.790;9.620;2023-07-30T01:41:00;17.60;99.90
19242;DHT22;9755;47.790;9.620;2023-07-30T01:43:27;17.70;99.90
19242;DHT22;9755;47.790;9.620;2023-07-30T01:45:54;17.60;99.90
19242;DHT22;9755;47.790;9.620;2023-07-30T01:48:21;17.50;99.90
19242;DHT22;9755;47.790;9.620;2023-07-30T01:50:48;17.40;99.90
19242;DHT22;9755;47.790;9.620;2023-07-30T01:53:17;17.30;99.90
19242;DHT22;9755;47.790;9.620;2023-07-30T01:55:44;17.20;99.90
19242;DHT22;9755;47.790;9.620;2023-07-30T01:58:12;17.00;99.90
19242;DHT22;9755;47.790;9.620;2023-07-30T02:00:39;17.00;99.90
19242;DHT22;9755;47.790;9.620;2023-07-30T02:03:07;17.00;99.90
19242;DHT22;9755;47.790;9.620;2023-07-30T02:05:34;16.90;99.90
19242;DHT22;9755;47.790;9.620;2023-07-30T02:08:01;16.80;99.90
19242;DHT22;9755;47.790;9.620;2023-07-30T02:10:29;16.90;99.90
19242;DHT22;9755;47.790;9.620;2023-07-30T02:12:56;16.90;99.90
19242;DHT22;9755;47.790;9.620;2023-07-30T02:15:23;16.80;99.90
19242;DHT22;9755;47.790;9.620;2023-07-30T02:17:50;16.80;99.90
19242;DHT22;9755;47.790;9.620;2023-07-30T02:20:17;16.80;99.90
19242;DHT22;9755;47.790;9.620;2023-07-30T02:22:45;16.80;99.90
19242;DHT22;9755;47.790;9.620;2023-07-30T02:25:12;16.90;99.90
19242;DHT22;9755;47.790;9.620;2023-07-30T02:27:40;16.90;99.90
19242;DHT22;9755;47.790;9.620;2023-07-30T02:30:08;16.80;99.90
19242;DHT22;9755;47.790;9.620;2023-07-30T02:32:35;16.70;99.90
19242;DHT22;9755;47.790;9.620;2023-07-30T02:35:02;16.70;99.90
19242;DHT22;9755;47.790;9.620;2023-07-30T02:37:29;16.80;99.90
19242;DHT22;9755;47.790;9.620;2023-07-30T02:39:56;16.70;99.90
19242;DHT22;9755;47.790;9.620;2023-07-30T02:42:25;16.70;99.90
19242;DHT22;9755;47.790;9.620;2023-07-30T02:44:53;16.70;99.90
19242;DHT22;9755;47.790;9.620;2023-07-30T02:47:20;16.70;99.90
19242;DHT22;9755;47.790;9.620;2023-07-30T02:49:48;16.60;99.90
19242;DHT22;9755;47.790;9.620;2023-07-30T02:52:15;16.50;99.90
19242;DHT22;9755;47.790;9.620;2023-07-30T02:54:42;16.40;99.90
19242;DHT22;9755;47.790;9.620;2023-07-30T02:57:09;16.10;99.90
19242;DHT22;9755;47.790;9.620;2023-07-30T02:59:38;16.00;99.90
19242;DHT22;9755;47.790;9.620;2023-07-30T03:02:07;15.80;99.90
19242;DHT22;9755;47.790;9.620;2023-07-30T03:04:35;15.70;99.90
19242;DHT22;9755;47.790;9.620;2023-07-30T03:07:04;16.00;99.90
19242;DHT22;9755;47.790;9.620;2023-07-30T03:09:32;16.10;99.90
19242;DHT22;9755;47.790;9.620;2023-07-30T03:11:59;16.00;99.90
19242;DHT22;9755;47.790;9.620;2023-07-30T03:14:26;16.10;99.90
19242;DHT22;9755;47.790;9.620;2023-07-30T03:16:53;16.20;99.90
19242;DHT22;9755;47.790;9.620;2023-07-30T03:19:22;16.30;99.90
19242;DHT22;9755;47.790;9.620;2023-07-30T03:21:49;16.30;99.90
19242;DHT22;9755;47.790;9.620;2023-07-30T03:24:16;16.40;99.90
19242;DHT22;9755;47.790;9.620;2023-07-30T03:26:43;16.30;99.90
19242;DHT22;9755;47.790;9.620;2023-07-30T03:29:10;16.50;99.90
19242;DHT22;9755;47.790;9.620;2023-07-30T03:31:37;16.40;99.90
19242;DHT22;9755;47.790;9.620;2023-07-30T03:34:04;16.50;99.90
19242;DHT22;9755;47.790;9.620;2023-07-30T03:36:32;16.50;99.90
19242;DHT22;9755;47.790;9.620;2023-07-30T03:39:00;16.50;99.90
19242;DHT22;9755;47.790;9.620;2023-07-30T03:41:27;16.60;99.90
19242;DHT22;9755;47.790;9.620;2023-07-30T03:43:57;16.50;99.90
19242;DHT22;9755;47.790;9.620;2023-07-30T03:46:24;16.30;99.90
19242;DHT22;9755;47.790;9.620;2023-07-30T03:48:51;16.20;99.90
19242;DHT22;9755;47.790;9.620;2023-07-30T03:51:18;16.10;99.90
19242;DHT22;9755;47.790;9.620;2023-07-30T03:53:47;16.00;99.90
19242;DHT22;9755;47.790;9.620;2023-07-30T03:56:14;16.00;99.90
19242;DHT22;9755;47.790;9.620;2023-07-30T03:58:41;15.90;99.90
19242;DHT22;9755;47.790;9.620;2023-07-30T04:01:08;15.90;99.90
19242;DHT22;9755;47.790;9.620;2023-07-30T04:03:35;15.90;99.90
19242;DHT22;9755;47.790;9.620;2023-07-30T04:06:02;15.90;99.90
19242;DHT22;9755;47.790;9.620;2023-07-30T04:08:29;15.90;99.90
19242;DHT22;9755;47.790;9.620;2023-07-30T04:10:57;16.00;99.90
19242;DHT22;9755;47.790;9.620;2023-07-30T04:13:24;15.90;99.90
19242;DHT22;9755;47.790;9.620;2023-07-30T04:15:52;16.10;99.90
19242;DHT22;9755;47.790;9.620;2023-07-30T04:18:19;16.10;99.90
19242;DHT22;9755;47.790;9.620;2023-07-30T04:20:46;16.20;99.90
19242;DHT22;9755;47.790;9.620;2023-07-30T04:23:13;16.20;99.90
19242;DHT22;9755;47.790;9.620;2023-07-30T04:25:40;16.20;99.90
19242;DHT22;9755;47.790;9.620;2023-07-30T04:28:08;16.20;99.90
19242;DHT22;9755;47.790;9.620;2023-07-30T04:30:35;16.20;99.90
19242;DHT22;9755;47.790;9.620;2023-07-30T04:33:02;16.30;99.90
19242;DHT22;9755;47.790;9.620;2023-07-30T04:35:29;16.40;99.90
19242;DHT22;9755;47.790;9.620;2023-07-30T04:37:56;16.50;99.90
19242;DHT22;9755;47.790;9.620;2023-07-30T04:40:23;16.60;99.90
19242;DHT22;9755;47.790;9.620;2023-07-30T04:42:50;16.60;99.90
19242;DHT22;9755;47.790;9.620;2023-07-30T04:45:19;16.80;99.90
19242;DHT22;9755;47.790;9.620;2023-07-30T04:47:46;17.30;99.90
19242;DHT22;9755;47.790;9.620;2023-07-30T04:50:13;17.90;99.90
19242;DHT22;9755;47.790;9.620;2023-07-30T04:52:40;18.20;99.90
19242;DHT22;9755;47.790;9.620;2023-07-30T04:55:07;18.40;99.90
19242;DHT22;9755;47.790;9.620;2023-07-30T04:57:34;19.00;99.90
19242;DHT22;9755;47.790;9.620;2023-07-30T05:00:01;19.60;99.90
19242;DHT22;9755;47.790;9.620;2023-07-30T05:02:30;20.30;99.90
19242;DHT22;9755;47.790;9.620;2023-07-30T05:04:57;21.10;99.90
19242;DHT22;9755;47.790;9.620;2023-07-30T05:07:24;21.80;99.90
19242;DHT22;9755;47.790;9.620;2023-07-30T05:09:51;22.50;99.90
19242;DHT22;9755;47.790;9.620;2023-07-30T05:12:18;23.10;99.90
19242;DHT22;9755;47.790;9.620;2023-07-30T05:14:45;23.80;99.90
19242;DHT22;9755;47.790;9.620;2023-07-30T05:17:12;24.20;99.90
19242;DHT22;9755;47.790;9.620;2023-07-30T05:19:40;24.30;99.90
19242;DHT22;9755;47.790;9.620;2023-07-30T05:22:07;23.70;99.90
19242;DHT22;9755;47.790;9.620;2023-07-30T05:24:35;23.40;99.90
19242;DHT22;9755;47.790;9.620;2023-07-30T05:27:02;23.50;99.90
19242;DHT22;9755;47.790;9.620;2023-07-30T05:29:29;23.60;99.90
19242;DHT22;9755;47.790;9.620;2023-07-30T05:31:56;23.60;99.90
19242;DHT22;9755;47.790;9.620;2023-07-30T05:34:23;23.60;99.90
19242;DHT22;9755;47.790;9.620;2023-07-30T05:36:52;23.80;99.90
19242;DHT22;9755;47.790;9.620;2023-07-30T05:39:19;23.90;99.90
19242;DHT22;9755;47.790;9.620;2023-07-30T05:41:46;24.20;99.90
19242;DHT22;9755;47.790;9.620;2023-07-30T05:44:13;23.90;99.90
19242;DHT22;9755;47.790;9.620;2023-07-30T05:46:40;23.60;99.90
19242;DHT22;9755;47.790;9.620;2023-07-30T05:49:07;23.40;99.90
19242;DHT22;9755;47.790;9.620;2023-07-30T05:51:34;23.50;99.90
19242;DHT22;9755;47.790;9.620;2023-07-30T05:54:03;23.30;99.90
19242;DHT22;9755;47.790;9.620;2023-07-30T05:56:30;23.10;99.90
19242;DHT22;9755;47.790;9.620;2023-07-30T05:58:57;23.60;99.90
19242;DHT22;9755;47.790;9.620;2023-07-30T06:01:24;23.80;99.90
19242;DHT22;9755;47.790;9.620;2023-07-30T06:03:51;24.20;99.90
19242;DHT22;9755;47.790;9.620;2023-07-30T06:06:18;24.10;99.90
19242;DHT22;9755;47.790;9.620;2023-07-30T06:08:52;24.60;99.90
19242;DHT22;9755;47.790;9.620;2023-07-30T06:11:21;23.50;99.90
19242;DHT22;9755;47.790;9.620;2023-07-30T06:13:48;22.90;99.90
19242;DHT22;9755;47.790;9.620;2023-07-30T06:16:16;22.80;99.90
19242;DHT22;9755;47.790;9.620;2023-07-30T06:18:44;23.40;99.90
19242;DHT22;9755;47.790;9.620;2023-07-30T06:21:11;24.40;99.90
19242;DHT22;9755;47.790;9.620;2023-07-30T06:23:38;23.60;99.90
19242;DHT22;9755;47.790;9.620;2023-07-30T06:26:05;22.60;99.90
19242;DHT22;9755;47.790;9.620;2023-07-30T06:28:34;22.00;99.90
19242;DHT22;9755;47.790;9.620;2023-07-30T06:31:01;21.80;99.90
19242;DHT22;9755;47.790;9.620;2023-07-30T06:33:28;21.60;99.90
19242;DHT22;9755;47.790;9.620;2023-07-30T06:35:55;22.00;99.90
19242;DHT22;9755;47.790;9.620;2023-07-30T06:38:22;22.30;99.90
19242;DHT22;9755;47.790;9.620;2023-07-30T06:40:49;22.40;99.90
19242;DHT22;9755;47.790;9.620;2023-07-30T06:43:16;22.80;99.90
19242;DHT22;9755;47.790;9.620;2023-07-30T06:45:44;22.90;99.90
19242;DHT22;9755;47.790;9.620;2023-07-30T06:48:12;22.20;99.90
19242;DHT22;9755;47.790;9.620;2023-07-30T06:50:41;21.70;99.90
19242;DHT22;9755;47.790;9.620;2023-07-30T06:53:08;21.30;99.90
19242;DHT22;9755;47.790;9.620;2023-07-30T06:55:35;21.30;99.90
19242;DHT22;9755;47.790;9.620;2023-07-30T06:58:02;21.30;99.90
19242;DHT22;9755;47.790;9.620;2023-07-30T07:00:29;21.20;99.90
19242;DHT22;9755;47.790;9.620;2023-07-30T07:02:58;21.30;99.90
19242;DHT22;9755;47.790;9.620;2023-07-30T07:05:25;21.20;99.90
19242;DHT22;9755;47.790;9.620;2023-07-30T07:07:52;21.30;99.90
19242;DHT22;9755;47.790;9.620;2023-07-30T07:10:19;21.20;99.90
19242;DHT22;9755;47.790;9.620;2023-07-30T07:12:46;21.30;99.90
19242;DHT22;9755;47.790;9.620;2023-07-30T07:15:13;22.00;99.90
19242;DHT22;9755;47.790;9.620;2023-07-30T07:17:40;22.60;99.90
19242;DHT22;9755;47.790;9.620;2023-07-30T07:20:08;22.70;99.90
19242;DHT22;9755;47.790;9.620;2023-07-30T07:22:37;22.40;99.90
19242;DHT22;9755;47.790;9.620;2023-07-30T07:25:04;22.50;99.90
19242;DHT22;9755;47.790;9.620;2023-07-30T07:27:31;22.60;99.90
19242;DHT22;9755;47.790;9.620;2023-07-30T07:29:58;22.80;99.90
19242;DHT22;9755;47.790;9.620;2023-07-30T07:32:26;22.90;99.90
19242;DHT22;9755;47.790;9.620;2023-07-30T07:34:53;22.50;99.90
19242;DHT22;9755;47.790;9.620;2023-07-30T07:37:21;22.60;99.90
19242;DHT22;9755;47.790;9.620;2023-07-30T07:39:48;22.70;99.90
19242;DHT22;9755;47.790;9.620;2023-07-30T07:42:15;23.40;99.90
19242;DHT22;9755;47.790;9.620;2023-07-30T07:44:42;23.90;99.90
19242;DHT22;9755;47.790;9.620;2023-07-30T07:47:11;23.90;99.90
19242;DHT22;9755;47.790;9.620;2023-07-30T07:49:38;24.00;99.90
19242;DHT22;9755;47.790;9.620;2023-07-30T07:52:06;23.60;99.90
19242;DHT22;9755;47.790;9.620;2023-07-30T07:54:34;23.60;99.90
19242;DHT22;9755;47.790;9.620;2023-07-30T07:57:02;23.80;99.90
19242;DHT22;9755;47.790;9.620;2023-07-30T07:59:29;23.50;99.90
19242;DHT22;9755;47.790;9.620;2023-07-30T08:01:56;23.50;99.90
19242;DHT22;9755;47.790;9.620;2023-07-30T08:04:23;23.10;99.90
19242;DHT22;9755;47.790;9.620;2023-07-30T08:06:50;22.70;99.90
19242;DHT22;9755;47.790;9.620;2023-07-30T08:09:17;23.90;99.90
19242;DHT22;9755;47.790;9.620;2023-07-30T08:11:45;24.80;99.90
19242;DHT22;9755;47.790;9.620;2023-07-30T08:14:12;25.30;97.60
19242;DHT22;9755;47.790;9.620;2023-07-30T08:16:39;26.40;92.50
19242;DHT22;9755;47.790;9.620;2023-07-30T08:19:07;27.30;81.60
19242;DHT22;9755;47.790;9.620;2023-07-30T08:21:34;27.90;75.70
19242;DHT22;9755;47.790;9.620;2023-07-30T08:24:01;27.90;67.90
19242;DHT22;9755;47.790;9.620;2023-07-30T08:26:28;27.80;72.70
19242;DHT22;9755;47.790;9.620;2023-07-30T08:28:56;27.20;66.60
19242;DHT22;9755;47.790;9.620;2023-07-30T08:31:23;25.90;76.00
19242;DHT22;9755;47.790;9.620;2023-07-30T08:33:50;25.40;85.30
19242;DHT22;9755;47.790;9.620;2023-07-30T08:36:17;25.20;84.90
19242;DHT22;9755;47.790;9.620;2023-07-30T08:38:44;24.70;92.00
19242;DHT22;9755;47.790;9.620;2023-07-30T08:41:11;24.40;92.80
19242;DHT22;9755;47.790;9.620;2023-07-30T08:43:38;24.30;95.00
19242;DHT22;9755;47.790;9.620;2023-07-30T08:46:07;24.20;95.50
19242;DHT22;9755;47.790;9.620;2023-07-30T08:48:34;23.90;96.70
19242;DHT22;9755;47.790;9.620;2023-07-30T08:51:01;24.50;94.00
19242;DHT22;9755;47.790;9.620;2023-07-30T08:53:29;25.90;86.50
19242;DHT22;9755;47.790;9.620;2023-07-30T08:55:57;26.40;74.80
19242;DHT22;9755;47.790;9.620;2023-07-30T08:58:25;25.80;73.40
19242;DHT22;9755;47.790;9.620;2023-07-30T09:00:55;24.90;80.60
19242;DHT22;9755;47.790;9.620;2023-07-30T09:03:24;25.20;79.10
19242;DHT22;9755;47.790;9.620;2023-07-30T09:05:53;25.20;79.40
19242;DHT22;9755;47.790;9.620;2023-07-30T09:08:20;25.00;77.80
19242;DHT22;9755;47.790;9.620;2023-07-30T09:10:48;24.50;80.80
19242;DHT22;9755;47.790;9.620;2023-07-30T09:13:21;24.30;85.30
19242;DHT22;9755;47.790;9.620;2023-07-30T09:15:49;24.50;81.30
19242;DHT22;9755;47.790;9.620;2023-07-30T09:18:17;24.20;86.60
19242;DHT22;9755;47.790;9.620;2023-07-30T09:20:46;23.90;87.60
19242;DHT22;9755;47.790;9.620;2023-07-30T09:23:13;24.00;86.70
19242;DHT22;9755;47.790;9.620;2023-07-30T09:25:40;24.30;83.90
19242;DHT22;9755;47.790;9.620;2023-07-30T09:28:09;24.80;81.00
19242;DHT22;9755;47.790;9.620;2023-07-30T09:30:37;25.00;77.20
19242;DHT22;9755;47.790;9.620;2023-07-30T09:33:04;24.80;78.20
19242;DHT22;9755;47.790;9.620;2023-07-30T09:35:33;25.40;74.20
19242;DHT22;9755;47.790;9.620;2023-07-30T09:38:03;25.90;67.00
19242;DHT22;9755;47.790;9.620;2023-07-30T09:40:34;26.40;62.70
19242;DHT22;9755;47.790;9.620;2023-07-30T09:43:03;25.90;63.30
19242;DHT22;9755;47.790;9.620;2023-07-30T09:45:33;26.20;58.50
19242;DHT22;9755;47.790;9.620;2023-07-30T09:48:03;25.20;58.70
19242;DHT22;9755;47.790;9.620;2023-07-30T09:50:30;24.90;60.60
19242;DHT22;9755;47.790;9.620;2023-07-30T09:52:58;26.00;58.80
19242;DHT22;9755;47.790;9.620;2023-07-30T09:55:28;27.00;53.30
19242;DHT22;9755;47.790;9.620;2023-07-30T09:57:55;28.20;43.90
19242;DHT22;9755;47.790;9.620;2023-07-30T10:00:23;29.00;36.30
19242;DHT22;9755;47.790;9.620;2023-07-30T10:02:50;27.70;37.20
19242;DHT22;9755;47.790;9.620;2023-07-30T10:05:20;26.50;41.20
19242;DHT22;9755;47.790;9.620;2023-07-30T10:07:51;25.40;49.20
19242;DHT22;9755;47.790;9.620;2023-07-30T10:10:21;25.80;52.20
19242;DHT22;9755;47.790;9.620;2023-07-30T10:12:51;25.70;52.80
19242;DHT22;9755;47.790;9.620;2023-07-30T10:15:20;26.70;48.40
19242;DHT22;9755;47.790;9.620;2023-07-30T10:17:49;27.70;43.10
19242;DHT22;9755;47.790;9.620;2023-07-30T10:20:24;28.10;37.30
19242;DHT22;9755;47.790;9.620;2023-07-30T10:22:52;28.00;38.70
19242;DHT22;9755;47.790;9.620;2023-07-30T10:25:28;27.10;40.80
19242;DHT22;9755;47.790;9.620;2023-07-30T10:27:58;26.30;41.80
19242;DHT22;9755;47.790;9.620;2023-07-30T10:30:31;25.90;48.40
19242;DHT22;9755;47.790;9.620;2023-07-30T10:33:03;26.00;47.90
19242;DHT22;9755;47.790;9.620;2023-07-30T10:35:41;25.70;49.60
19242;DHT22;9755;47.790;9.620;2023-07-30T10:38:18;25.70;49.70
19242;DHT22;9755;47.790;9.620;2023-07-30T10:41:00;26.50;47.20
19242;DHT22;9755;47.790;9.620;2023-07-30T10:43:29;26.40;42.80
19242;DHT22;9755;47.790;9.620;2023-07-30T10:45:57;26.70;39.10
19242;DHT22;9755;47.790;9.620;2023-07-30T10:48:32;26.70;40.50
19242;DHT22;9755;47.790;9.620;2023-07-30T10:51:00;27.80;37.40
19242;DHT22;9755;47.790;9.620;2023-07-30T10:53:28;29.30;34.40
19242;DHT22;9755;47.790;9.620;2023-07-30T10:55:57;29.30;28.60
19242;DHT22;9755;47.790;9.620;2023-07-30T10:58:26;28.40;29.40
19242;DHT22;9755;47.790;9.620;2023-07-30T11:00:55;28.10;27.30
19242;DHT22;9755;47.790;9.620;2023-07-30T11:03:24;27.20;31.20
19242;DHT22;9755;47.790;9.620;2023-07-30T11:05:53;27.30;31.60
19242;DHT22;9755;47.790;9.620;2023-07-30T11:08:31;27.10;31.60
19242;DHT22;9755;47.790;9.620;2023-07-30T11:10:58;26.60;34.10
19242;DHT22;9755;47.790;9.620;2023-07-30T11:13:26;27.70;35.90
19242;DHT22;9755;47.790;9.620;2023-07-30T11:15:54;28.60;28.10
19242;DHT22;9755;47.790;9.620;2023-07-30T11:18:21;28.20;27.80
19242;DHT22;9755;47.790;9.620;2023-07-30T11:20:48;28.60;27.90
19242;DHT22;9755;47.790;9.620;2023-07-30T11:23:18;28.30;28.00
19242;DHT22;9755;47.790;9.620;2023-07-30T11:25:49;28.60;26.90
19242;DHT22;9755;47.790;9.620;2023-07-30T11:28:37;29.00;25.20
19242;DHT22;9755;47.790;9.620;2023-07-30T11:31:07;28.00;24.20
19242;DHT22;9755;47.790;9.620;2023-07-30T11:33:36;27.40;28.30
19242;DHT22;9755;47.790;9.620;2023-07-30T11:36:03;27.40;29.30
19242;DHT22;9755;47.790;9.620;2023-07-30T11:38:31;27.60;26.90
19242;DHT22;9755;47.790;9.620;2023-07-30T11:40:58;28.20;24.30
19242;DHT22;9755;47.790;9.620;2023-07-30T11:43:26;28.20;21.60
19242;DHT22;9755;47.790;9.620;2023-07-30T11:46:12;28.10;20.90
19242;DHT22;9755;47.790;9.620;2023-07-30T11:48:40;28.10;20.80
19242;DHT22;9755;47.790;9.620;2023-07-30T11:51:19;28.50;16.60
19242;DHT22;9755;47.790;9.620;2023-07-30T11:53:48;28.80;8.80
19242;DHT22;9755;47.790;9.620;2023-07-30T11:56:25;29.00;1.00
19242;DHT22;9755;47.790;9.620;2023-07-30T11:58:54;28.60;1.00
19242;DHT22;9755;47.790;9.620;2023-07-30T12:01:24;28.60;1.00
19242;DHT22;9755;47.790;9.620;2023-07-30T12:03:54;29.00;1.00
19242;DHT22;9755;47.790;9.620;2023-07-30T12:06:21;28.30;1.00
19242;DHT22;9755;47.790;9.620;2023-07-30T12:08:49;28.00;1.00
19242;DHT22;9755;47.790;9.620;2023-07-30T12:11:17;28.40;1.00
19242;DHT22;9755;47.790;9.620;2023-07-30T12:13:45;28.50;1.00
19242;DHT22;9755;47.790;9.620;2023-07-30T12:16:14;29.30;1.00
19242;DHT22;9755;47.790;9.620;2023-07-30T12:18:42;28.90;1.00
19242;DHT22;9755;47.790;9.620;2023-07-30T12:21:09;28.80;1.00
19242;DHT22;9755;47.790;9.620;2023-07-30T12:23:37;28.50;1.00
19242;DHT22;9755;47.790;9.620;2023-07-30T12:26:04;28.20;1.00
19242;DHT22;9755;47.790;9.620;2023-07-30T12:28:31;28.30;1.00
19242;DHT22;9755;47.790;9.620;2023-07-30T12:30:59;28.90;1.00
19242;DHT22;9755;47.790;9.620;2023-07-30T12:33:26;29.20;1.00
19242;DHT22;9755;47.790;9.620;2023-07-30T12:35:55;29.40;1.00
19242;DHT22;9755;47.790;9.620;2023-07-30T12:38:22;28.70;1.00
19242;DHT22;9755;47.790;9.620;2023-07-30T12:40:49;28.30;1.00
19242;DHT22;9755;47.790;9.620;2023-07-30T12:43:17;28.40;1.00
19242;DHT22;9755;47.790;9.620;2023-07-30T12:45:46;28.90;1.00
19242;DHT22;9755;47.790;9.620;2023-07-30T12:48:13;28.40;1.00
19242;DHT22;9755;47.790;9.620;2023-07-30T12:50:40;28.30;1.00
19242;DHT22;9755;47.790;9.620;2023-07-30T12:53:09;28.20;1.00
19242;DHT22;9755;47.790;9.620;2023-07-30T12:55:36;28.30;1.00
19242;DHT22;9755;47.790;9.620;2023-07-30T12:58:05;28.50;1.00
19242;DHT22;9755;47.790;9.620;2023-07-30T13:00:33;27.70;1.00
19242;DHT22;9755;47.790;9.620;2023-07-30T13:03:00;28.00;1.00
19242;DHT22;9755;47.790;9.620;2023-07-30T13:05:28;28.70;1.00
19242;DHT22;9755;47.790;9.620;2023-07-30T13:07:55;28.90;1.00
19242;DHT22;9755;47.790;9.620;2023-07-30T13:10:23;28.60;1.00
19242;DHT22;9755;47.790;9.620;2023-07-30T13:12:50;28.50;1.00
19242;DHT22;9755;47.790;9.620;2023-07-30T13:15:17;28.50;1.00
19242;DHT22;9755;47.790;9.620;2023-07-30T13:17:44;28.20;1.00
19242;DHT22;9755;47.790;9.620;2023-07-30T13:20:11;28.20;1.00
19242;DHT22;9755;47.790;9.620;2023-07-30T13:22:38;28.60;1.00
19242;DHT22;9755;47.790;9.620;2023-07-30T13:25:06;29.20;1.00
19242;DHT22;9755;47.790;9.620;2023-07-30T13:27:35;28.70;1.00
19242;DHT22;9755;47.790;9.620;2023-07-30T13:30:02;28.00;1.00
19242;DHT22;9755;47.790;9.620;2023-07-30T13:32:29;27.50;1.00
19242;DHT22;9755;47.790;9.620;2023-07-30T13:34:56;27.30;1.00
19242;DHT22;9755;47.790;9.620;2023-07-30T13:37:24;27.40;1.00
19242;DHT22;9755;47.790;9.620;2023-07-30T13:39:51;27.40;1.00
19242;DHT22;9755;47.790;9.620;2023-07-30T13:42:18;27.40;1.00
19242;DHT22;9755;47.790;9.620;2023-07-30T13:44:46;27.40;1.00
19242;DHT22;9755;47.790;9.620;2023-07-30T13:47:13;27.80;1.00
19242;DHT22;9755;47.790;9.620;2023-07-30T13:49:40;27.70;1.00
19242;DHT22;9755;47.790;9.620;2023-07-30T13:52:08;27.70;1.00
19242;DHT22;9755;47.790;9.620;2023-07-30T13:54:35;27.70;1.00
19242;DHT22;9755;47.790;9.620;2023-07-30T13:57:03;27.90;1.00
19242;DHT22;9755;47.790;9.620;2023-07-30T13:59:30;27.70;1.00
19242;DHT22;9755;47.790;9.620;2023-07-30T14:01:58;27.60;1.00
19242;DHT22;9755;47.790;9.620;2023-07-30T14:04:25;27.30;1.00
19242;DHT22;9755;47.790;9.620;2023-07-30T14:06:52;27.50;1.00
19242;DHT22;9755;47.790;9.620;2023-07-30T14:09:20;27.00;1.00
19242;DHT22;9755;47.790;9.620;2023-07-30T14:11:47;27.10;1.00
19242;DHT22;9755;47.790;9.620;2023-07-30T14:14:14;26.90;1.00
19242;DHT22;9755;47.790;9.620;2023-07-30T14:16:41;26.80;1.00
19242;DHT22;9755;47.790;9.620;2023-07-30T14:19:09;26.60;1.00
19242;DHT22;9755;47.790;9.620;2023-07-30T14:21:36;26.60;1.00
19242;DHT22;9755;47.790;9.620;2023-07-30T14:24:05;26.70;1.00
19242;DHT22;9755;47.790;9.620;2023-07-30T14:26:32;26.90;1.00
19242;DHT22;9755;47.790;9.620;2023-07-30T14:28:59;26.80;1.00
19242;DHT22;9755;47.790;9.620;2023-07-30T14:31:26;26.80;1.00
19242;DHT22;9755;47.790;9.620;2023-07-30T14:33:53;26.90;1.00
19242;DHT22;9755;47.790;9.620;2023-07-30T14:36:22;26.70;1.00
19242;DHT22;9755;47.790;9.620;2023-07-30T14:38:49;26.50;1.00
19242;DHT22;9755;47.790;9.620;2023-07-30T14:41:16;26.60;1.00
19242;DHT22;9755;47.790;9.620;2023-07-30T14:43:43;26.50;1.00
19242;DHT22;9755;47.790;9.620;2023-07-30T14:46:10;26.30;1.00
19242;DHT22;9755;47.790;9.620;2023-07-30T14:48:40;26.50;1.00
19242;DHT22;9755;47.790;9.620;2023-07-30T14:51:09;26.40;1.00
19242;DHT22;9755;47.790;9.620;2023-07-30T14:53:38;26.60;1.00
19242;DHT22;9755;47.790;9.620;2023-07-30T14:56:05;26.30;1.00
19242;DHT22;9755;47.790;9.620;2023-07-30T14:58:32;26.30;1.00
19242;DHT22;9755;47.790;9.620;2023-07-30T15:00:59;26.30;1.00
19242;DHT22;9755;47.790;9.620;2023-07-30T15:03:26;26.10;1.00
19242;DHT22;9755;47.790;9.620;2023-07-30T15:05:53;26.30;1.00
19242;DHT22;9755;47.790;9.620;2023-07-30T15:08:20;26.50;1.00
19242;DHT22;9755;47.790;9.620;2023-07-30T15:10:48;26.60;1.00
19242;DHT22;9755;47.790;9.620;2023-07-30T15:13:15;26.80;1.00
19242;DHT22;9755;47.790;9.620;2023-07-30T15:15:43;27.10;1.00
19242;DHT22;9755;47.790;9.620;2023-07-30T15:18:11;27.20;1.00
19242;DHT22;9755;47.790;9.620;2023-07-30T15:20:38;26.80;1.00
19242;DHT22;9755;47.790;9.620;2023-07-30T15:23:05;26.70;1.00
19242;DHT22;9755;47.790;9.620;2023-07-30T15:25:32;26.60;1.00
19242;DHT22;9755;47.790;9.620;2023-07-30T15:28:00;26.40;1.00
19242;DHT22;9755;47.790;9.620;2023-07-30T15:30:28;26.30;1.00
19242;DHT22;9755;47.790;9.620;2023-07-30T15:32:55;26.50;1.00
19242;DHT22;9755;47.790;9.620;2023-07-30T15:35:23;26.50;1.00
19242;DHT22;9755;47.790;9.620;2023-07-30T15:37:50;26.40;1.00
19242;DHT22;9755;47.790;9.620;2023-07-30T15:40:17;26.50;1.00
19242;DHT22;9755;47.790;9.620;2023-07-30T15:42:44;26.70;1.00
19242;DHT22;9755;47.790;9.620;2023-07-30T15:45:13;26.90;1.00
19242;DHT22;9755;47.790;9.620;2023-07-30T15:47:41;27.20;1.00
19242;DHT22;9755;47.790;9.620;2023-07-30T15:50:08;27.50;1.00
19242;DHT22;9755;47.790;9.620;2023-07-30T15:52:35;27.30;1.00
19242;DHT22;9755;47.790;9.620;2023-07-30T15:55:03;27.40;1.00